Time;durP1;ratioP1;P1;durP2;ratioP2;P2;SDS_P1;SDS_P2;PMS_P1;PMS_P2;Temp;Humidity;BMP_temperature;BMP_pressure;BME280_temperature;BME280_humidity;BME280_pressure;Samples;Min_cycle;Max_cycle;Signal;HPM_P1;HPM_P2
2024/01/19 00:02:14;;;;;;;11.15;7.38;;;;;;;;;;5093843;28;20036;-74
2024/01/19 00:04:40;;;;;;;10.77;8.13;;;;;;;;;;5097303;28;20034;-74
2024/01/19 00:07:06;;;;;;;9.77;6.50;;;;;;;;;;5107355;28;20419;-74
2024/01/19 00:09:32;;;;;;;13.68;9.13;;;;;;;;;;5108432;28;20032;-73
2024/01/19 00:11:58;;;;;;;14.77;9.82;;;;;;;;;;5096492;28;20028;-74
2024/01/19 00:14:25;;;;;;;19.15;11.48;;;;;;;;;;5106949;28;20038;-72
2024/01/19 00:16:51;;;;;;;12.80;7.97;;;;;;;;;;5107165;28;20031;-73
2024/01/19 00:19:17;;;;;;;12.02;8.38;;;;;;;;;;5096609;28;20588;-72
2024/01/19 00:21:44;;;;;;;9.57;8.57;;;;;;;;;;5103734;28;20047;-72
2024/01/19 00:24:10;;;;;;;10.40;9.30;;;;;;;;;;5094747;28;20514;-72
2024/01/19 00:26:36;;;;;;;11.60;8.75;;;;;;;;;;5099662;28;20044;-72
2024/01/19 00:29:02;;;;;;;13.85;10.23;;;;;;;;;;5100428;28;20035;-72
2024/01/19 00:31:27;;;;;;;26.70;14.20;;;;;;;;;;5097380;28;20062;-72
2024/01/19 00:33:54;;;;;;;35.92;20.27;;;;;;;;;;5080176;28;20027;-72
2024/01/19 00:36:20;;;;;;;37.78;23.83;;;;;;;;;;5109981;28;20447;-72
2024/01/19 00:38:46;;;;;;;40.63;24.77;;;;;;;;;;5101411;28;20119;-72
2024/01/19 00:41:13;;;;;;;24.67;17.40;;;;;;;;;;5111257;28;20137;-73
2024/01/19 00:43:40;;;;;;;18.65;13.13;;;;;;;;;;5084902;28;20035;-71
2024/01/19 00:46:07;;;;;;;19.08;12.30;;;;;;;;;;5098346;28;20055;-72
2024/01/19 00:48:32;;;;;;;18.25;11.32;;;;;;;;;;5107711;28;20044;-72
2024/01/19 00:50:58;;;;;;;19.65;13.50;;;;;;;;;;5107148;28;20034;-72
2024/01/19 00:53:24;;;;;;;15.23;11.35;;;;;;;;;;5100673;28;20129;-72
2024/01/19 00:55:50;;;;;;;16.83;12.02;;;;;;;;;;5106832;28;20100;-72
2024/01/19 00:58:16;;;;;;;18.92;11.95;;;;;;;;;;5096449;28;20502;-72
2024/01/19 01:00:42;;;;;;;15.27;11.63;;;;;;;;;;5108342;28;20435;-72
2024/01/19 01:03:08;;;;;;;13.90;10.65;;;;;;;;;;5108035;28;20096;-72
2024/01/19 01:05:34;;;;;;;16.83;11.60;;;;;;;;;;5107274;28;20036;-74
2024/01/19 01:07:59;;;;;;;16.63;11.38;;;;;;;;;;5099081;28;20036;-71
2024/01/19 01:10:25;;;;;;;26.52;15.55;;;;;;;;;;5111278;28;20039;-72
2024/01/19 01:12:51;;;;;;;30.13;15.65;;;;;;;;;;5111801;28;20144;-72
2024/01/19 01:15:17;;;;;;;48.97;23.92;;;;;;;;;;5106713;28;20024;-72
2024/01/19 01:17:43;;;;;;;31.88;16.88;;;;;;;;;;5110241;28;20031;-73
2024/01/19 01:20:10;;;;;;;24.25;14.30;;;;;;;;;;5104407;28;20042;-73
2024/01/19 01:22:36;;;;;;;29.40;14.13;;;;;;;;;;5110179;28;20119;-73
2024/01/19 01:25:02;;;;;;;23.50;15.55;;;;;;;;;;5110272;28;20294;-73
2024/01/19 01:27:30;;;;;;;28.42;15.15;;;;;;;;;;5110684;28;20040;-73
2024/01/19 01:29:56;;;;;;;22.70;13.45;;;;;;;;;;5100326;28;20539;-73
2024/01/19 01:32:22;;;;;;;18.67;12.05;;;;;;;;;;5110858;28;20035;-74
2024/01/19 01:34:48;;;;;;;22.13;12.15;;;;;;;;;;5110294;28;20034;-74
2024/01/19 01:37:14;;;;;;;23.05;13.02;;;;;;;;;;5083092;28;20039;-73
2024/01/19 01:39:39;;;;;;;17.42;11.75;;;;;;;;;;5100693;28;20031;-73
2024/01/19 01:42:05;;;;;;;17.40;11.90;;;;;;;;;;5111425;28;20044;-72
2024/01/19 01:44:31;;;;;;;12.80;10.25;;;;;;;;;;5105359;28;20074;-72
2024/01/19 01:46:57;;;;;;;13.93;10.73;;;;;;;;;;5090044;28;20039;-72
2024/01/19 01:49:23;;;;;;;13.05;9.43;;;;;;;;;;5110550;28;20119;-73
2024/01/19 01:51:49;;;;;;;14.00;10.60;;;;;;;;;;5079207;28;20065;-72
2024/01/19 01:54:15;;;;;;;14.27;8.98;;;;;;;;;;5098302;28;20042;-71
2024/01/19 01:56:41;;;;;;;13.93;9.70;;;;;;;;;;5110202;28;20118;-72
2024/01/19 01:59:07;;;;;;;14.00;9.55;;;;;;;;;;5103580;28;20449;-72
2024/01/19 02:01:33;;;;;;;16.98;10.20;;;;;;;;;;5100639;28;20769;-72
2024/01/19 02:03:59;;;;;;;15.13;12.00;;;;;;;;;;5109809;28;20104;-72
2024/01/19 02:06:26;;;;;;;14.27;10.50;;;;;;;;;;5106168;28;20031;-72
2024/01/19 02:08:52;;;;;;;11.95;9.60;;;;;;;;;;5109823;28;20563;-72
2024/01/19 02:11:19;;;;;;;16.63;9.75;;;;;;;;;;5102298;28;20062;-73
2024/01/19 02:13:45;;;;;;;17.10;10.65;;;;;;;;;;5100484;28;20035;-73
2024/01/19 02:16:11;;;;;;;17.90;10.77;;;;;;;;;;5109850;28;20645;-72
2024/01/19 02:18:36;;;;;;;16.92;10.23;;;;;;;;;;5110220;28;20044;-72
2024/01/19 02:21:03;;;;;;;20.15;12.55;;;;;;;;;;5109339;28;20032;-73
2024/01/19 02:23:29;;;;;;;24.73;11.30;;;;;;;;;;5109518;28;20058;-74
2024/01/19 02:25:55;;;;;;;15.57;10.90;;;;;;;;;;5082084;28;20284;-72
2024/01/19 02:28:20;;;;;;;10.25;8.80;;;;;;;;;;5083568;28;20043;-72
2024/01/19 02:30:46;;;;;;;20.52;10.63;;;;;;;;;;5100219;28;20047;-72
2024/01/19 02:33:12;;;;;;;13.50;10.63;;;;;;;;;;5097210;28;20050;-72
2024/01/19 02:35:38;;;;;;;18.33;11.38;;;;;;;;;;5109701;28;20043;-73
2024/01/19 02:38:04;;;;;;;21.42;13.15;;;;;;;;;;5110975;28;20120;-73
2024/01/19 02:40:30;;;;;;;17.23;11.23;;;;;;;;;;5110452;28;20054;-73
2024/01/19 02:42:56;;;;;;;24.88;15.32;;;;;;;;;;5099736;28;20735;-71
2024/01/19 02:45:22;;;;;;;19.38;12.50;;;;;;;;;;5109632;28;20050;-72
2024/01/19 02:47:47;;;;;;;20.63;13.73;;;;;;;;;;5108713;28;20054;-72
2024/01/19 02:50:13;;;;;;;25.15;14.38;;;;;;;;;;5108346;28;20457;-73
2024/01/19 02:52:39;;;;;;;18.67;10.30;;;;;;;;;;5098981;28;20035;-73
2024/01/19 02:55:05;;;;;;;18.17;10.88;;;;;;;;;;5081402;28;20612;-70
2024/01/19 02:57:31;;;;;;;23.50;12.65;;;;;;;;;;5109433;28;20031;-71
2024/01/19 02:59:57;;;;;;;21.33;12.95;;;;;;;;;;5097936;28;20046;-72
2024/01/19 03:02:23;;;;;;;18.80;11.82;;;;;;;;;;5102851;28;20039;-73
2024/01/19 03:04:49;;;;;;;16.92;12.68;;;;;;;;;;5108366;28;20141;-72
2024/01/19 03:07:15;;;;;;;18.70;11.38;;;;;;;;;;5108544;28;20134;-73
2024/01/19 03:09:40;;;;;;;19.20;12.45;;;;;;;;;;5109049;28;20116;-74
2024/01/19 03:12:06;;;;;;;22.63;13.15;;;;;;;;;;5108078;28;20047;-72
2024/01/19 03:14:33;;;;;;;22.33;14.02;;;;;;;;;;5108289;28;20547;-73
2024/01/19 03:16:58;;;;;;;22.60;13.15;;;;;;;;;;5108159;28;20028;-73
2024/01/19 03:19:24;;;;;;;18.77;13.70;;;;;;;;;;5098314;28;20038;-73
2024/01/19 03:21:50;;;;;;;19.15;13.98;;;;;;;;;;5111801;27;20039;-72
2024/01/19 03:24:16;;;;;;;19.40;13.05;;;;;;;;;;5108485;28;20027;-73
2024/01/19 03:26:42;;;;;;;19.45;12.93;;;;;;;;;;5099517;28;20069;-72
2024/01/19 03:29:08;;;;;;;22.27;14.55;;;;;;;;;;5102443;28;20076;-72
2024/01/19 03:31:34;;;;;;;23.63;12.80;;;;;;;;;;5093862;28;20633;-73
2024/01/19 03:34:00;;;;;;;22.17;13.60;;;;;;;;;;5108872;28;20024;-72
2024/01/19 03:36:26;;;;;;;21.52;14.88;;;;;;;;;;5110355;28;20674;-72
2024/01/19 03:38:52;;;;;;;19.45;13.30;;;;;;;;;;5111811;28;20039;-71
2024/01/19 03:41:18;;;;;;;19.17;13.02;;;;;;;;;;5103243;28;20032;-74
2024/01/19 03:43:44;;;;;;;17.67;11.85;;;;;;;;;;5099915;28;20027;-73
2024/01/19 03:46:10;;;;;;;18.73;13.48;;;;;;;;;;5107948;28;20142;-73
2024/01/19 03:48:36;;;;;;;21.80;14.90;;;;;;;;;;5109364;28;20044;-71
2024/01/19 03:51:02;;;;;;;19.42;13.40;;;;;;;;;;5079027;27;20486;-72
2024/01/19 03:53:28;;;;;;;21.25;13.70;;;;;;;;;;5109008;28;20119;-72
2024/01/19 03:55:54;;;;;;;19.17;13.98;;;;;;;;;;5094800;28;20085;-73
2024/01/19 03:58:20;;;;;;;17.92;13.45;;;;;;;;;;5097020;28;20039;-73
2024/01/19 04:00:46;;;;;;;23.15;14.07;;;;;;;;;;5097913;28;20038;-73
2024/01/19 04:03:12;;;;;;;25.25;13.85;;;;;;;;;;5079290;28;20032;-73
2024/01/19 04:05:38;;;;;;;18.17;13.02;;;;;;;;;;5109158;28;20067;-74
2024/01/19 04:08:04;;;;;;;20.00;13.23;;;;;;;;;;5100772;28;20475;-72
2024/01/19 04:10:30;;;;;;;23.70;13.13;;;;;;;;;;5108691;28;20114;-75
2024/01/19 04:12:56;;;;;;;22.63;14.00;;;;;;;;;;5108723;28;20036;-72
2024/01/19 04:15:21;;;;;;;27.73;15.32;;;;;;;;;;5108640;28;20518;-72
2024/01/19 04:17:47;;;;;;;22.08;14.52;;;;;;;;;;5099871;28;20654;-73
2024/01/19 04:20:13;;;;;;;24.65;13.55;;;;;;;;;;5095702;28;20535;-72
2024/01/19 04:22:40;;;;;;;23.77;13.55;;;;;;;;;;5107016;28;20041;-72
2024/01/19 04:25:06;;;;;;;23.73;14.35;;;;;;;;;;5107363;28;20054;-72
2024/01/19 04:27:33;;;;;;;19.73;14.52;;;;;;;;;;5107330;28;20199;-72
2024/01/19 04:29:58;;;;;;;23.90;15.20;;;;;;;;;;5106744;28;20111;-71
2024/01/19 04:32:24;;;;;;;29.98;16.67;;;;;;;;;;5106432;28;20154;-72
2024/01/19 04:34:50;;;;;;;24.55;13.80;;;;;;;;;;5098188;28;20610;-72
2024/01/19 04:37:16;;;;;;;22.88;14.32;;;;;;;;;;5096710;28;20031;-72
2024/01/19 04:39:42;;;;;;;29.88;15.10;;;;;;;;;;5108081;28;20127;-72
2024/01/19 04:42:08;;;;;;;28.80;14.50;;;;;;;;;;5095630;28;20069;-72
2024/01/19 04:44:34;;;;;;;27.50;15.23;;;;;;;;;;5109916;28;20075;-72
2024/01/19 04:47:00;;;;;;;22.75;14.90;;;;;;;;;;5112080;28;20035;-71
2024/01/19 04:49:26;;;;;;;21.75;14.10;;;;;;;;;;5111884;28;20649;-72
2024/01/19 04:51:52;;;;;;;19.85;13.85;;;;;;;;;;5111318;27;20046;-71
2024/01/19 04:54:18;;;;;;;23.13;13.60;;;;;;;;;;5099117;28;20555;-72
2024/01/19 04:56:44;;;;;;;19.20;13.40;;;;;;;;;;5110852;28;20084;-72
2024/01/19 04:59:10;;;;;;;23.20;14.05;;;;;;;;;;5104960;28;20036;-71
2024/01/19 05:01:36;;;;;;;24.45;14.73;;;;;;;;;;5110781;28;20138;-72
2024/01/19 05:04:01;;;;;;;28.48;16.13;;;;;;;;;;5110914;28;20028;-72
2024/01/19 05:06:27;;;;;;;20.90;14.45;;;;;;;;;;5109470;28;20061;-72
2024/01/19 05:08:53;;;;;;;24.50;14.07;;;;;;;;;;5100958;28;20557;-72
2024/01/19 05:11:19;;;;;;;26.60;14.15;;;;;;;;;;5110572;28;20035;-72
2024/01/19 05:13:45;;;;;;;26.90;13.63;;;;;;;;;;5110387;28;20055;-72
2024/01/19 05:16:11;;;;;;;22.20;12.95;;;;;;;;;;5110478;28;20031;-71
2024/01/19 05:18:38;;;;;;;14.57;11.15;;;;;;;;;;5101457;28;20034;-71
2024/01/19 05:21:05;;;;;;;22.70;13.63;;;;;;;;;;5100519;28;20085;-71
2024/01/19 05:23:31;;;;;;;24.60;14.18;;;;;;;;;;5111564;28;20084;-71
2024/01/19 05:25:57;;;;;;;22.58;13.75;;;;;;;;;;5082654;28;20039;-71
2024/01/19 05:28:23;;;;;;;23.67;13.77;;;;;;;;;;5110665;28;20043;-72
2024/01/19 05:30:49;;;;;;;24.33;15.07;;;;;;;;;;5110397;28;20042;-72
2024/01/19 05:33:15;;;;;;;26.40;14.82;;;;;;;;;;5116834;27;20036;-75
2024/01/19 05:35:41;;;;;;;26.25;15.05;;;;;;;;;;5105109;27;20027;-75
2024/01/19 05:38:07;;;;;;;23.60;15.23;;;;;;;;;;5097490;27;20085;-75
2024/01/19 05:40:33;;;;;;;22.52;14.50;;;;;;;;;;5110289;28;20067;-74
2024/01/19 05:42:59;;;;;;;17.73;12.00;;;;;;;;;;5100258;28;20031;-74
2024/01/19 05:45:25;;;;;;;15.90;11.57;;;;;;;;;;5103711;28;20139;-75
2024/01/19 05:47:51;;;;;;;18.08;12.70;;;;;;;;;;5110660;28;20096;-75
2024/01/19 05:50:18;;;;;;;17.17;12.55;;;;;;;;;;5087831;28;20042;-76
2024/01/19 05:52:44;;;;;;;17.48;12.82;;;;;;;;;;5097385;28;20057;-75
2024/01/19 05:55:10;;;;;;;21.17;12.77;;;;;;;;;;5095496;28;20051;-76
2024/01/19 05:57:36;;;;;;;20.20;13.02;;;;;;;;;;5099213;28;20070;-75
2024/01/19 06:00:02;;;;;;;17.60;11.95;;;;;;;;;;5109973;27;20064;-75
2024/01/19 06:02:38;;;;;;;19.08;10.68;;;;;;;;;;5093943;28;20071;-76
2024/01/19 06:05:04;;;;;;;13.75;11.10;;;;;;;;;;5112411;27;20070;-76
2024/01/19 06:07:32;;;;;;;16.42;11.82;;;;;;;;;;5105915;28;20455;-76
2024/01/19 06:09:58;;;;;;;13.48;11.30;;;;;;;;;;5112656;28;20077;-78
2024/01/19 06:12:24;;;;;;;15.90;9.40;;;;;;;;;;5103528;28;20058;-77
2024/01/19 06:14:50;;;;;;;13.77;10.15;;;;;;;;;;5112152;27;20512;-76
2024/01/19 06:17:16;;;;;;;12.07;9.73;;;;;;;;;;5111790;28;20035;-76
2024/01/19 06:19:42;;;;;;;15.27;11.10;;;;;;;;;;5099776;28;20380;-76
2024/01/19 06:22:08;;;;;;;11.43;7.90;;;;;;;;;;5103503;28;20042;-73
2024/01/19 06:24:36;;;;;;;16.13;12.15;;;;;;;;;;5109028;28;20570;-74
2024/01/19 06:27:03;;;;;;;10.60;9.20;;;;;;;;;;5081732;28;20554;-74
2024/01/19 06:29:29;;;;;;;12.25;9.82;;;;;;;;;;5112411;27;20036;-77
2024/01/19 06:31:55;;;;;;;14.35;10.52;;;;;;;;;;5079451;28;20423;-75
2024/01/19 06:34:21;;;;;;;12.82;9.98;;;;;;;;;;5098625;27;20509;-75
2024/01/19 06:36:46;;;;;;;10.70;9.63;;;;;;;;;;5108738;28;20035;-75
2024/01/19 06:39:12;;;;;;;7.18;5.72;;;;;;;;;;5097090;28;20122;-75
2024/01/19 06:41:42;;;;;;;8.98;7.47;;;;;;;;;;5098246;28;20042;-74
2024/01/19 06:44:11;;;;;;;15.00;9.55;;;;;;;;;;5108611;28;20031;-74
2024/01/19 06:46:37;;;;;;;4.68;4.22;;;;;;;;;;5100757;28;20051;-75
2024/01/19 06:49:03;;;;;;;9.68;8.15;;;;;;;;;;5114964;27;20415;-75
2024/01/19 06:51:29;;;;;;;11.10;7.60;;;;;;;;;;5075729;28;20142;-74
2024/01/19 06:53:55;;;;;;;8.80;7.88;;;;;;;;;;5093427;28;20039;-73
2024/01/19 06:56:21;;;;;;;11.93;10.30;;;;;;;;;;5108917;28;20024;-76
2024/01/19 06:58:47;;;;;;;19.33;9.88;;;;;;;;;;5095868;28;20046;-74
2024/01/19 07:01:13;;;;;;;10.07;5.88;;;;;;;;;;5091381;28;20076;-75
2024/01/19 07:03:39;;;;;;;12.10;8.88;;;;;;;;;;5074986;28;20509;-75
2024/01/19 07:06:05;;;;;;;10.80;7.88;;;;;;;;;;5090775;28;20047;-74
2024/01/19 07:08:31;;;;;;;13.73;10.85;;;;;;;;;;5109389;28;20066;-74
2024/01/19 07:10:56;;;;;;;8.82;8.07;;;;;;;;;;5072467;27;20496;-74
2024/01/19 07:13:23;;;;;;;11.73;8.75;;;;;;;;;;5070762;28;20116;-74
2024/01/19 07:15:48;;;;;;;10.40;9.30;;;;;;;;;;5103218;28;20101;-75
2024/01/19 07:18:14;;;;;;;5.57;5.13;;;;;;;;;;5108177;28;20039;-74
2024/01/19 07:20:41;;;;;;;9.52;8.73;;;;;;;;;;5091259;28;20087;-74
2024/01/19 07:23:07;;;;;;;12.65;8.75;;;;;;;;;;5059083;28;20411;-73
2024/01/19 07:25:36;;;;;;;6.03;5.63;;;;;;;;;;5118269;28;20039;-72
2024/01/19 07:28:02;;;;;;;7.88;7.10;;;;;;;;;;5111747;28;20122;-72
2024/01/19 07:30:28;;;;;;;13.32;8.40;;;;;;;;;;5109818;28;20184;-73
2024/01/19 07:32:54;;;;;;;7.97;6.15;;;;;;;;;;5120561;27;20027;-73
2024/01/19 07:35:19;;;;;;;6.50;5.90;;;;;;;;;;5108693;28;20024;-73
2024/01/19 07:37:45;;;;;;;5.30;4.05;;;;;;;;;;5106738;27;20031;-73
2024/01/19 07:40:30;;;;;;;5.82;5.28;;;;;;;;;;5123116;27;20027;-73
2024/01/19 07:42:59;;;;;;;12.98;8.27;;;;;;;;;;5106340;28;20031;-72
2024/01/19 07:45:24;;;;;;;9.32;8.40;;;;;;;;;;5073802;28;20081;-72
2024/01/19 07:47:50;;;;;;;8.65;7.75;;;;;;;;;;5090609;28;20560;-72
2024/01/19 07:50:16;;;;;;;10.60;9.25;;;;;;;;;;5109460;28;20056;-72
2024/01/19 07:52:43;;;;;;;12.48;8.60;;;;;;;;;;5109216;28;20106;-73
2024/01/19 07:55:09;;;;;;;10.80;8.63;;;;;;;;;;5090822;28;20034;-72
2024/01/19 07:57:37;;;;;;;20.83;8.00;;;;;;;;;;5090825;28;20035;-72
2024/01/19 08:00:03;;;;;;;9.25;7.72;;;;;;;;;;5112868;28;20038;-73
2024/01/19 08:02:32;;;;;;;4.95;4.55;;;;;;;;;;5119430;28;20039;-72
2024/01/19 08:05:00;;;;;;;5.20;4.70;;;;;;;;;;5119234;28;20038;-73
2024/01/19 08:07:26;;;;;;;10.93;4.00;;;;;;;;;;5102734;28;20043;-72
2024/01/19 08:09:52;;;;;;;10.07;7.88;;;;;;;;;;5103304;28;20504;-73
2024/01/19 08:12:18;;;;;;;5.60;5.03;;;;;;;;;;5106909;28;20039;-72
2024/01/19 08:14:44;;;;;;;10.75;8.15;;;;;;;;;;5118509;28;20080;-73
2024/01/19 08:17:10;;;;;;;10.15;7.85;;;;;;;;;;5109730;28;20047;-73
2024/01/19 08:19:36;;;;;;;11.13;8.73;;;;;;;;;;5110109;28;20027;-73
2024/01/19 08:22:02;;;;;;;5.80;5.18;;;;;;;;;;5073803;28;20458;-73
2024/01/19 08:24:28;;;;;;;9.90;8.77;;;;;;;;;;5091783;28;20053;-72
2024/01/19 08:26:54;;;;;;;14.18;8.35;;;;;;;;;;5109852;28;20134;-73
2024/01/19 08:29:20;;;;;;;6.13;4.50;;;;;;;;;;5109061;28;20039;-72
2024/01/19 08:31:49;;;;;;;12.23;6.82;;;;;;;;;;5109005;28;20042;-73
2024/01/19 08:34:15;;;;;;;6.25;5.20;;;;;;;;;;5108704;28;20503;-73
2024/01/19 08:36:41;;;;;;;4.60;4.20;;;;;;;;;;5124082;28;20057;-73
2024/01/19 08:39:10;;;;;;;6.28;5.63;;;;;;;;;;5090133;28;20039;-73
2024/01/19 08:41:40;;;;;;;3.90;3.63;;;;;;;;;;5083720;28;20495;-72
2024/01/19 08:44:06;;;;;;;3.50;3.30;;;;;;;;;;5090110;28;20038;-72
2024/01/19 08:46:32;;;;;;;3.05;2.70;;;;;;;;;;5108587;28;20043;-72
2024/01/19 08:49:16;;;;;;;8.90;8.00;;;;;;;;;;5108404;28;20126;-72
2024/01/19 08:51:43;;;;;;;5.05;4.40;;;;;;;;;;5073270;28;20042;-73
2024/01/19 08:54:10;;;;;;;4.40;4.00;;;;;;;;;;5090349;28;20063;-72
2024/01/19 08:56:36;;;;;;;3.72;3.45;;;;;;;;;;5109016;28;20057;-72
2024/01/19 08:59:02;;;;;;;5.63;4.47;;;;;;;;;;5090759;28;20028;-73
2024/01/19 09:01:28;;;;;;;11.02;7.50;;;;;;;;;;5092842;28;20118;-73
2024/01/19 09:03:53;;;;;;;11.50;8.25;;;;;;;;;;5110566;28;20147;-72
2024/01/19 09:06:19;;;;;;;6.35;4.00;;;;;;;;;;5108584;28;20455;-72
2024/01/19 09:08:45;;;;;;;9.98;5.47;;;;;;;;;;5108301;28;20387;-72
2024/01/19 09:11:11;;;;;;;11.77;8.93;;;;;;;;;;5107344;28;20028;-73
2024/01/19 09:13:40;;;;;;;7.63;5.65;;;;;;;;;;5108867;28;20414;-72
2024/01/19 09:16:09;;;;;;;12.95;10.27;;;;;;;;;;5074774;28;20070;-73
2024/01/19 09:18:35;;;;;;;6.50;5.85;;;;;;;;;;5118142;28;20028;-71
2024/01/19 09:21:01;;;;;;;10.32;8.27;;;;;;;;;;5075050;28;20043;-73
2024/01/19 09:23:28;;;;;;;16.20;8.35;;;;;;;;;;5108657;28;20032;-72
2024/01/19 09:25:53;;;;;;;10.93;8.98;;;;;;;;;;5107698;28;20038;-73
2024/01/19 09:28:20;;;;;;;15.25;8.63;;;;;;;;;;5107945;28;20541;-73
2024/01/19 09:30:47;;;;;;;10.25;8.07;;;;;;;;;;5110560;28;20034;-72
2024/01/19 09:33:14;;;;;;;6.85;6.25;;;;;;;;;;5111683;28;20419;-73
2024/01/19 09:35:40;;;;;;;8.10;7.40;;;;;;;;;;5076575;28;20048;-72
2024/01/19 09:38:06;;;;;;;12.88;7.75;;;;;;;;;;5111259;28;20036;-72
2024/01/19 09:40:35;;;;;;;6.18;5.57;;;;;;;;;;5075961;28;20070;-72
2024/01/19 09:43:01;;;;;;;4.30;3.88;;;;;;;;;;5092762;28;20047;-73
2024/01/19 09:45:27;;;;;;;12.63;8.85;;;;;;;;;;5111221;28;20087;-72
2024/01/19 09:47:55;;;;;;;10.60;8.13;;;;;;;;;;5111461;28;20467;-73
2024/01/19 09:50:23;;;;;;;13.40;8.65;;;;;;;;;;5093665;28;20133;-73
2024/01/19 09:52:55;;;;;;;7.47;6.75;;;;;;;;;;5076270;28;20043;-73
2024/01/19 09:55:21;;;;;;;10.23;7.00;;;;;;;;;;5111278;28;20038;-72
2024/01/19 09:57:48;;;;;;;11.43;8.35;;;;;;;;;;5093102;28;20035;-73
2024/01/19 10:00:14;;;;;;;12.38;8.77;;;;;;;;;;5110903;28;20040;-73
2024/01/19 10:02:58;;;;;;;9.82;6.65;;;;;;;;;;5110883;28;20035;-72
2024/01/19 10:05:24;;;;;;;4.40;4.05;;;;;;;;;;5089694;28;20380;-73
2024/01/19 10:07:53;;;;;;;6.13;5.53;;;;;;;;;;5110902;28;20092;-72
2024/01/19 10:10:19;;;;;;;4.18;3.78;;;;;;;;;;5110243;28;20062;-72
2024/01/19 10:12:48;;;;;;;11.65;7.97;;;;;;;;;;5110651;28;20047;-72
2024/01/19 10:15:19;;;;;;;10.23;6.68;;;;;;;;;;5110670;28;20035;-73
2024/01/19 10:17:45;;;;;;;9.35;8.40;;;;;;;;;;5076601;28;20039;-73
2024/01/19 10:20:11;;;;;;;7.90;6.65;;;;;;;;;;5093158;28;20396;-72
2024/01/19 10:22:37;;;;;;;10.60;7.43;;;;;;;;;;5094802;28;20126;-74
2024/01/19 10:25:04;;;;;;;3.92;3.45;;;;;;;;;;5110944;28;20027;-73
2024/01/19 10:27:45;;;;;;;7.82;5.90;;;;;;;;;;5092841;28;20104;-73
2024/01/19 10:30:21;;;;;;;6.47;5.75;;;;;;;;;;5111709;28;20028;-73
2024/01/19 10:32:48;;;;;;;9.45;8.25;;;;;;;;;;5111850;28;20415;-73
2024/01/19 10:35:15;;;;;;;7.93;6.30;;;;;;;;;;5111074;28;20039;-72
2024/01/19 10:37:42;;;;;;;4.95;4.43;;;;;;;;;;5110426;28;20059;-72
2024/01/19 10:40:15;;;;;;;11.32;7.97;;;;;;;;;;5109985;28;20027;-73
2024/01/19 10:42:41;;;;;;;9.13;7.35;;;;;;;;;;5088277;28;20063;-73
2024/01/19 10:45:14;;;;;;;8.07;5.28;;;;;;;;;;5108931;28;20047;-73
2024/01/19 10:47:43;;;;;;;7.80;7.07;;;;;;;;;;5110979;28;20088;-73
2024/01/19 10:50:14;;;;;;;11.32;9.05;;;;;;;;;;5110634;28;20038;-73
2024/01/19 10:52:46;;;;;;;11.50;8.02;;;;;;;;;;5109843;28;20027;-73
2024/01/19 10:55:16;;;;;;;8.52;7.63;;;;;;;;;;5091825;28;20163;-73
2024/01/19 10:57:44;;;;;;;10.75;7.95;;;;;;;;;;5109838;28;20460;-74
2024/01/19 11:00:28;;;;;;;6.50;5.88;;;;;;;;;;5091621;28;20036;-72
2024/01/19 11:02:59;;;;;;;11.48;9.35;;;;;;;;;;5071463;28;20040;-73
2024/01/19 11:05:25;;;;;;;7.90;6.97;;;;;;;;;;5089588;28;20119;-72
2024/01/19 11:07:51;;;;;;;20.83;10.48;;;;;;;;;;5089997;28;20138;-72
2024/01/19 11:10:19;;;;;;;17.20;8.88;;;;;;;;;;5096275;28;20032;-72
2024/01/19 11:12:47;;;;;;;11.88;9.45;;;;;;;;;;5095134;28;20110;-73
2024/01/19 11:15:14;;;;;;;12.40;9.00;;;;;;;;;;5089689;28;20493;-73
2024/01/19 11:17:40;;;;;;;9.32;8.02;;;;;;;;;;5071520;28;20093;-73
2024/01/19 11:20:06;;;;;;;10.18;8.93;;;;;;;;;;5089023;28;20035;-73
2024/01/19 11:22:32;;;;;;;11.73;9.38;;;;;;;;;;5088108;28;20492;-72
2024/01/19 11:25:02;;;;;;;12.57;9.18;;;;;;;;;;5088100;28;20028;-72
2024/01/19 11:27:35;;;;;;;13.98;10.45;;;;;;;;;;5088234;28;20052;-73
2024/01/19 11:30:09;;;;;;;15.70;9.43;;;;;;;;;;5054402;28;20032;-74
2024/01/19 11:32:35;;;;;;;12.82;6.32;;;;;;;;;;5088331;28;20048;-73
2024/01/19 11:35:02;;;;;;;12.13;9.45;;;;;;;;;;5071070;28;20036;-72
2024/01/19 11:37:45;;;;;;;11.43;8.52;;;;;;;;;;5089132;28;20024;-73
2024/01/19 11:40:24;;;;;;;9.77;6.38;;;;;;;;;;5070893;28;20085;-73
2024/01/19 11:42:51;;;;;;;15.75;9.05;;;;;;;;;;5071141;28;20094;-73
2024/01/19 11:45:43;;;;;;;9.88;8.68;;;;;;;;;;5088660;28;20508;-72
2024/01/19 11:48:09;;;;;;;10.23;8.15;;;;;;;;;;5085968;28;20051;-73
2024/01/19 11:50:42;;;;;;;10.60;8.35;;;;;;;;;;5087572;28;20681;-73
2024/01/19 11:53:09;;;;;;;12.38;8.13;;;;;;;;;;5070292;28;20031;-72
2024/01/19 11:55:35;;;;;;;12.00;8.40;;;;;;;;;;5087368;28;20142;-73
2024/01/19 11:58:20;;;;;;;15.13;9.60;;;;;;;;;;5088435;28;20040;-72
2024/01/19 12:00:46;;;;;;;12.45;7.93;;;;;;;;;;5088666;28;20100;-72
2024/01/19 12:03:13;;;;;;;4.68;4.25;;;;;;;;;;5101439;28;20032;-72
2024/01/19 12:05:40;;;;;;;14.38;8.38;;;;;;;;;;5109204;28;20046;-73
2024/01/19 12:08:06;;;;;;;8.13;7.32;;;;;;;;;;5090888;28;20040;-73
2024/01/19 12:10:32;;;;;;;10.90;8.48;;;;;;;;;;5109237;28;20031;-72
2024/01/19 12:12:57;;;;;;;8.73;7.47;;;;;;;;;;5090738;28;20043;-72
2024/01/19 12:15:23;;;;;;;9.50;7.63;;;;;;;;;;5090525;28;20028;-72
2024/01/19 12:17:49;;;;;;;12.40;8.70;;;;;;;;;;5124720;27;20630;-73
2024/01/19 12:20:16;;;;;;;9.98;7.63;;;;;;;;;;5108659;28;20038;-73
2024/01/19 12:22:42;;;;;;;9.90;7.22;;;;;;;;;;5090468;28;20175;-73
2024/01/19 12:25:12;;;;;;;10.18;7.85;;;;;;;;;;5090337;28;20534;-72
2024/01/19 12:27:37;;;;;;;10.40;8.60;;;;;;;;;;5108660;28;20054;-73
2024/01/19 12:30:11;;;;;;;11.38;9.27;;;;;;;;;;5090378;28;20028;-72
2024/01/19 12:32:36;;;;;;;7.88;6.30;;;;;;;;;;5108651;28;20096;-72
2024/01/19 12:35:03;;;;;;;8.00;6.50;;;;;;;;;;5090645;28;20441;-72
2024/01/19 12:37:30;;;;;;;8.02;6.72;;;;;;;;;;5073283;28;20054;-73
2024/01/19 12:40:12;;;;;;;13.20;8.85;;;;;;;;;;5090435;28;20415;-73
2024/01/19 12:42:41;;;;;;;10.88;6.22;;;;;;;;;;5109202;28;20059;-72
2024/01/19 12:45:07;;;;;;;8.80;7.95;;;;;;;;;;5108308;28;20088;-73
2024/01/19 12:47:33;;;;;;;8.85;7.97;;;;;;;;;;5090279;28;20135;-73
2024/01/19 12:49:59;;;;;;;13.82;10.05;;;;;;;;;;5108899;28;20512;-73
2024/01/19 12:52:25;;;;;;;9.48;7.78;;;;;;;;;;5056755;28;20035;-73
2024/01/19 12:54:51;;;;;;;11.32;8.68;;;;;;;;;;5074279;28;20406;-73
2024/01/19 12:57:17;;;;;;;10.60;9.07;;;;;;;;;;5108334;28;20035;-72
2024/01/19 12:59:43;;;;;;;11.25;8.40;;;;;;;;;;5074883;28;20035;-72
2024/01/19 13:02:12;;;;;;;17.25;7.95;;;;;;;;;;5098527;28;20024;-72
2024/01/19 13:04:38;;;;;;;10.80;7.85;;;;;;;;;;5113211;28;20415;-73
2024/01/19 13:07:04;;;;;;;14.50;8.05;;;;;;;;;;5112975;28;20067;-73
2024/01/19 13:09:30;;;;;;;12.70;7.80;;;;;;;;;;5077445;28;20063;-72
2024/01/19 13:12:12;;;;;;;14.23;6.47;;;;;;;;;;5077259;28;20035;-71
2024/01/19 13:14:38;;;;;;;12.80;6.70;;;;;;;;;;5113111;28;20032;-72
2024/01/19 13:17:05;;;;;;;11.15;7.97;;;;;;;;;;5111933;28;20110;-72
2024/01/19 13:19:31;;;;;;;10.73;8.27;;;;;;;;;;5111819;28;20039;-71
2024/01/19 13:21:56;;;;;;;13.05;8.52;;;;;;;;;;5093858;28;20100;-72
2024/01/19 13:24:24;;;;;;;10.93;7.90;;;;;;;;;;5111751;28;20527;-72
2024/01/19 13:27:02;;;;;;;10.85;6.82;;;;;;;;;;5093857;28;20043;-71
2024/01/19 13:29:28;;;;;;;47.78;21.30;;;;;;;;;;5111821;28;20039;-72
2024/01/19 13:31:55;;;;;;;59.85;25.05;;;;;;;;;;5076599;28;20039;-72
2024/01/19 13:34:26;;;;;;;45.42;20.55;;;;;;;;;;5093833;28;20046;-73
2024/01/19 13:36:52;;;;;;;36.10;17.77;;;;;;;;;;5112272;28;20036;-72
2024/01/19 13:39:18;;;;;;;31.33;15.10;;;;;;;;;;5111890;28;20532;-72
2024/01/19 13:41:44;;;;;;;19.92;11.85;;;;;;;;;;5093346;28;20038;-72
2024/01/19 13:44:10;;;;;;;15.88;9.07;;;;;;;;;;5092910;28;20035;-72
2024/01/19 13:46:36;;;;;;;15.20;9.05;;;;;;;;;;5111679;28;20036;-72
2024/01/19 13:49:02;;;;;;;11.43;7.05;;;;;;;;;;5111496;28;20045;-72
2024/01/19 13:51:28;;;;;;;9.30;7.40;;;;;;;;;;5111051;28;20474;-71
2024/01/19 13:53:54;;;;;;;11.60;7.53;;;;;;;;;;5093113;28;20031;-72
2024/01/19 13:56:21;;;;;;;14.23;8.57;;;;;;;;;;5092534;28;20130;-72
2024/01/19 13:58:47;;;;;;;15.73;8.88;;;;;;;;;;5092889;28;20024;-72
2024/01/19 14:01:12;;;;;;;12.35;9.30;;;;;;;;;;5110740;28;20472;-72
2024/01/19 14:03:38;;;;;;;14.55;10.07;;;;;;;;;;5092764;28;20035;-72
2024/01/19 14:06:04;;;;;;;13.43;8.60;;;;;;;;;;5093336;28;20040;-72
2024/01/19 14:08:30;;;;;;;13.65;9.52;;;;;;;;;;5092574;28;20498;-72
2024/01/19 14:10:56;;;;;;;12.57;7.82;;;;;;;;;;5092800;28;20051;-72
2024/01/19 14:13:22;;;;;;;13.32;8.43;;;;;;;;;;5110659;28;20039;-72
2024/01/19 14:15:48;;;;;;;13.55;9.02;;;;;;;;;;5110850;28;20031;-72
2024/01/19 14:18:16;;;;;;;20.38;10.77;;;;;;;;;;5075642;28;20035;-71
2024/01/19 14:20:43;;;;;;;25.90;13.45;;;;;;;;;;5059175;28;20039;-71
2024/01/19 14:23:09;;;;;;;34.47;15.80;;;;;;;;;;5110735;28;20495;-71
2024/01/19 14:25:35;;;;;;;26.13;13.43;;;;;;;;;;5092689;28;20028;-72